createdAt,value
2023-01-21T00:02:15.470Z,100670.36
2023-01-21T00:07:18.236Z,100672.44
2023-01-21T00:12:20.836Z,100666.58
2023-01-21T00:17:23.446Z,100651.84
2023-01-21T00:22:29.302Z,100640.22
2023-01-21T00:27:32.021Z,100632.48
2023-01-21T00:32:34.689Z,100625.56
2023-01-21T00:37:37.320Z,100615.52
2023-01-21T00:42:42.444Z,100612.40
2023-01-21T00:47:45.296Z,100605.15
2023-01-21T00:52:47.970Z,100603.40
2023-01-21T00:57:52.995Z,100606.84
2023-01-21T01:02:55.729Z,100618.46
2023-01-21T01:07:58.493Z,100622.40
2023-01-21T01:13:01.502Z,100612.70
2023-01-21T01:18:04.204Z,100607.97
2023-01-21T01:23:10.238Z,100613.14
2023-01-21T01:28:13.175Z,100611.98
2023-01-21T01:33:15.861Z,100609.64
2023-01-21T01:38:20.744Z,100612.53
2023-01-21T01:43:26.178Z,100614.04
2023-01-21T01:48:31.840Z,100620.55
2023-01-21T01:53:37.232Z,100614.75
2023-01-21T01:58:40.148Z,100604.14
2023-01-21T02:03:50.568Z,100620.06
2023-01-21T02:08:53.803Z,100619.92
2023-01-21T02:13:59.688Z,100609.14
2023-01-21T02:19:25.370Z,100607.23
2023-01-21T02:24:41.375Z,100606.16
2023-01-21T02:29:47.083Z,100594.03
2023-01-21T02:34:57.627Z,100597.13
2023-01-21T02:40:10.268Z,100588.05
2023-01-21T02:45:24.128Z,100593.52
2023-01-21T02:50:31.194Z,100601.73
2023-01-21T02:55:37.986Z,100596.89
2023-01-21T03:01:00.461Z,100594.49
2023-01-21T03:06:05.941Z,100597.74
2023-01-21T03:11:16.849Z,100601.30
2023-01-21T03:16:31.562Z,100602.80
2023-01-21T03:21:35.482Z,100608.80
2023-01-21T03:26:42.999Z,100604.20
2023-01-21T03:31:50.648Z,100598.35
2023-01-21T03:37:03.741Z,100601.95
2023-01-21T03:42:09.063Z,100594.05
2023-01-21T03:47:16.625Z,100599.45
2023-01-21T03:52:22.842Z,100593.77
2023-01-21T03:57:25.520Z,100588.64
2023-01-21T04:02:28.230Z,100582.72
2023-01-21T04:07:30.954Z,100567.67
2023-01-21T04:12:33.587Z,100561.35
2023-01-21T04:17:38.676Z,100562.23
2023-01-21T04:22:41.266Z,100556.46
2023-01-21T04:27:43.849Z,100557.16
2023-01-21T04:32:46.466Z,100535.78
2023-01-21T04:37:49.101Z,100529.34
2023-01-21T04:42:51.866Z,100527.00
2023-01-21T04:47:54.463Z,100527.91
2023-01-21T04:52:57.038Z,100528.32
2023-01-21T04:57:59.691Z,100531.60
2023-01-21T05:03:02.347Z,100534.56
2023-01-21T05:08:05.050Z,100530.32
2023-01-21T05:13:07.645Z,100530.52
2023-01-21T05:18:10.266Z,100529.32
2023-01-21T05:23:12.855Z,100538.59
2023-01-21T05:28:15.446Z,100540.70
2023-01-21T05:33:18.101Z,100541.95
2023-01-21T05:38:20.717Z,100549.89
2023-01-21T05:43:55.692Z,100544.30
2023-01-21T05:48:58.291Z,100542.98
2023-01-21T05:54:00.909Z,100552.30
2023-01-21T05:59:03.616Z,100554.89
2023-01-21T06:04:06.272Z,100552.52
2023-01-21T06:09:09.078Z,100549.11
2023-01-21T06:14:12.397Z,100550.66
2023-01-21T06:19:15.059Z,100559.06
2023-01-21T06:24:17.723Z,100559.08
2023-01-21T06:29:20.584Z,100571.91
2023-01-21T06:34:23.169Z,100575.13
2023-01-21T06:39:28.224Z,100575.45
2023-01-21T06:44:30.826Z,100577.00
2023-01-21T06:49:33.434Z,100570.13
2023-01-21T06:54:36.091Z,100565.84
2023-01-21T06:59:38.693Z,100556.55
2023-01-21T07:04:41.371Z,100549.33
2023-01-21T07:09:44.294Z,100547.63
2023-01-21T07:14:46.941Z,100538.23
2023-01-21T07:19:49.591Z,100528.28
2023-01-21T07:24:52.189Z,100527.10
2023-01-21T07:29:54.803Z,100519.61
2023-01-21T07:34:57.441Z,100508.64
2023-01-21T07:40:02.274Z,100507.78
2023-01-21T07:45:05.329Z,100488.05
2023-01-21T07:50:08.955Z,100496.63
2023-01-21T07:55:12.729Z,100489.27
2023-01-21T08:00:18.388Z,100487.05
2023-01-21T08:05:22.151Z,100486.92
2023-01-21T08:10:25.021Z,100481.45
2023-01-21T08:15:27.612Z,100474.14
2023-01-21T08:20:30.255Z,100473.87
2023-01-21T08:25:33.149Z,100465.02
2023-01-21T08:30:36.077Z,100459.43
2023-01-21T08:35:38.721Z,100449.83
2023-01-21T08:40:41.333Z,100447.08
2023-01-21T08:45:46.214Z,100440.08
2023-01-21T08:50:48.856Z,100438.45
2023-01-21T08:55:51.505Z,100421.88
2023-01-21T09:00:54.423Z,100424.84
2023-01-21T09:06:01.061Z,100428.27
2023-01-21T09:11:06.662Z,100440.48
2023-01-21T09:16:12.137Z,100452.48
2023-01-21T09:21:15.960Z,100451.13
2023-01-21T09:26:20.766Z,100459.19
2023-01-21T09:31:25.814Z,100464.16
2023-01-21T09:36:31.187Z,100476.52
2023-01-21T09:41:35.905Z,100485.58
2023-01-21T09:46:41.416Z,100489.37
2023-01-21T09:51:52.768Z,100497.13
2023-01-21T09:57:15.329Z,100500.08
2023-01-21T10:02:26.463Z,100503.55
2023-01-21T10:07:36.342Z,100503.23
2023-01-21T10:12:53.888Z,100508.42
2023-01-21T10:17:59.390Z,100512.58
2023-01-21T10:23:10.643Z,100510.52
2023-01-21T10:28:20.827Z,100513.80
2023-01-21T10:33:26.458Z,100512.80
2023-01-21T10:38:37.071Z,100512.14
2023-01-21T10:44:02.454Z,100513.02
2023-01-21T10:49:07.010Z,100505.69
2023-01-21T10:54:17.051Z,100517.92
2023-01-21T10:59:24.547Z,100518.16
2023-01-21T11:04:28.190Z,100519.45
2023-01-21T11:09:35.340Z,100525.02
2023-01-21T11:14:38.019Z,100527.46
2023-01-21T11:19:57.290Z,100526.09
2023-01-21T11:25:00.928Z,100523.70
2023-01-21T11:30:19.566Z,100521.65
2023-01-21T11:35:28.399Z,100516.32
2023-01-21T11:40:31.259Z,100518.52
2023-01-21T11:45:37.883Z,100515.46
2023-01-21T11:50:42.792Z,100513.41
2023-01-21T11:55:50.396Z,100523.89
2023-01-21T12:00:56.532Z,100530.58
2023-01-21T12:06:00.353Z,100532.11
2023-01-21T12:11:05.630Z,100535.71
2023-01-21T12:16:13.118Z,100538.27
2023-01-21T12:21:21.645Z,100535.17
2023-01-21T12:26:27.106Z,100541.23
2023-01-21T12:31:36.702Z,100541.05
2023-01-21T12:36:50.965Z,100542.30
2023-01-21T12:42:16.943Z,100543.35
2023-01-21T12:47:22.546Z,100547.98
2023-01-21T12:52:34.817Z,100562.76
2023-01-21T12:57:41.764Z,100564.63
2023-01-21T13:02:50.201Z,100576.28
2023-01-21T13:08:00.404Z,100578.64
2023-01-21T13:13:16.376Z,100580.52
2023-01-21T13:18:26.014Z,100581.02
2023-01-21T13:23:36.303Z,100590.11
2023-01-21T13:28:45.186Z,100603.69
2023-01-21T13:33:49.919Z,100605.92
2023-01-21T13:39:20.443Z,100612.25
2023-01-21T13:44:25.920Z,100617.38
2023-01-21T13:49:31.499Z,100620.95
2023-01-21T13:54:45.120Z,100627.98
2023-01-21T13:59:57.610Z,100632.79
2023-01-21T14:05:04.992Z,100636.37
2023-01-21T14:10:14.369Z,100642.38
2023-01-21T14:15:18.255Z,100642.02
2023-01-21T14:20:21.953Z,100644.05
2023-01-21T14:25:24.543Z,100650.55
2023-01-21T14:30:37.106Z,100656.89
2023-01-21T14:35:47.917Z,100662.54
2023-01-21T14:41:02.840Z,100672.13
2023-01-21T14:46:11.251Z,100682.79
2023-01-21T14:51:21.372Z,100690.85
2023-01-21T14:56:31.650Z,100692.73
2023-01-21T15:01:34.417Z,100698.05
2023-01-21T15:06:39.898Z,100707.83
2023-01-21T15:11:44.140Z,100711.42
2023-01-21T15:16:50.044Z,100720.66
2023-01-21T15:21:58.470Z,100728.69
2023-01-21T15:27:15.609Z,100733.80
2023-01-21T15:32:22.971Z,100741.31
2023-01-21T15:37:29.637Z,100739.92
2023-01-21T15:42:43.906Z,100749.36
2023-01-21T15:47:57.007Z,100751.23
2023-01-21T15:52:59.547Z,100748.66
2023-01-21T15:58:03.125Z,100752.27
2023-01-21T16:03:17.412Z,100762.39
2023-01-21T16:08:22.839Z,100765.36
2023-01-21T16:13:36.800Z,100770.90
2023-01-21T16:18:42.245Z,100776.23
2023-01-21T16:23:45.473Z,100782.41
2023-01-21T16:28:49.666Z,100782.59
2023-01-21T16:33:53.579Z,100792.70
2023-01-21T16:38:56.729Z,100793.91
2023-01-21T16:44:03.941Z,100804.56
2023-01-21T16:49:14.766Z,100815.02
2023-01-21T16:54:19.356Z,100826.14
2023-01-21T16:59:26.098Z,100835.73
2023-01-21T17:04:29.141Z,100843.61
2023-01-21T17:09:35.459Z,100852.36
2023-01-21T17:14:38.194Z,100860.06
2023-01-21T17:19:43.085Z,100867.39
2023-01-21T17:25:07.567Z,100876.96
2023-01-21T17:30:15.938Z,100883.95
2023-01-21T17:35:23.006Z,100888.57
2023-01-21T17:40:29.769Z,100897.33
2023-01-21T17:45:45.648Z,100900.23
2023-01-21T17:50:48.561Z,100905.38
2023-01-21T17:55:55.375Z,100917.06
2023-01-21T18:01:01.223Z,100920.99
2023-01-21T18:11:29.218Z,100934.11
2023-01-21T18:16:32.106Z,100945.45
2023-01-21T18:21:34.699Z,100950.29
2023-01-21T18:26:38.244Z,100956.44
2023-01-21T18:31:41.005Z,100958.14
2023-01-21T18:36:43.857Z,100965.70
2023-01-21T18:41:46.742Z,100973.58
2023-01-21T18:46:49.430Z,100977.67
2023-01-21T18:51:52.082Z,100981.63
2023-01-21T18:56:54.776Z,100985.92
2023-01-21T19:01:57.515Z,100986.38
2023-01-21T19:07:00.118Z,100988.63
2023-01-21T19:12:02.702Z,101001.02
2023-01-21T19:17:05.879Z,101004.82
2023-01-21T19:22:13.888Z,101012.21
2023-01-21T19:27:22.751Z,101018.21
2023-01-21T19:32:25.426Z,101020.45
2023-01-21T19:37:28.043Z,101030.36
2023-01-21T19:42:33.082Z,101035.79
2023-01-21T19:47:38.076Z,101043.70
2023-01-21T19:52:40.651Z,101043.03
2023-01-21T19:57:45.480Z,101050.39
2023-01-21T20:02:48.342Z,101054.30
2023-01-21T20:07:51.251Z,101058.54
2023-01-21T20:12:54.622Z,101068.13
2023-01-21T20:18:01.303Z,101073.08
2023-01-21T20:23:04.078Z,101081.50
2023-01-21T20:28:14.839Z,101087.01
2023-01-21T20:33:20.465Z,101093.16
2023-01-21T20:38:28.233Z,101108.03
2023-01-21T20:43:31.216Z,101114.39
2023-01-21T20:48:36.675Z,101121.48
2023-01-21T20:53:39.583Z,101131.11
2023-01-21T20:58:44.816Z,101142.98
2023-01-21T21:03:48.087Z,101135.55
2023-01-21T21:08:51.452Z,101136.62
2023-01-21T21:13:54.063Z,101140.89
2023-01-21T21:18:57.062Z,101141.04
2023-01-21T21:23:59.660Z,101149.48
2023-01-21T21:29:02.655Z,101155.42
2023-01-21T21:34:05.214Z,101165.85
2023-01-21T21:39:07.910Z,101164.44
2023-01-21T21:44:11.252Z,101169.56
2023-01-21T21:49:13.874Z,101177.95
2023-01-21T21:54:17.649Z,101178.83
2023-01-21T21:59:20.329Z,101181.10
2023-01-21T22:04:23.534Z,101180.46
2023-01-21T22:09:26.704Z,101177.27
2023-01-21T22:14:29.316Z,101177.53
2023-01-21T22:19:31.987Z,101185.55
2023-01-21T22:24:34.573Z,101192.03
2023-01-21T22:29:37.182Z,101197.35
2023-01-21T22:34:39.796Z,101198.70
2023-01-21T22:39:42.368Z,101205.87
2023-01-21T22:44:44.932Z,101204.96
2023-01-21T22:49:49.124Z,101209.41
2023-01-21T22:54:51.890Z,101212.30
2023-01-21T22:59:54.621Z,101209.16
2023-01-21T23:04:57.273Z,101212.04
2023-01-21T23:10:00.003Z,101213.89
2023-01-21T23:15:02.593Z,101218.16
2023-01-21T23:20:05.993Z,101221.56
2023-01-21T23:25:09.156Z,101230.29
2023-01-21T23:30:13.645Z,101237.83
2023-01-21T23:35:16.390Z,101238.70
2023-01-21T23:40:19.507Z,101247.16
2023-01-21T23:45:22.253Z,101251.46
2023-01-21T23:50:25.077Z,101253.46
2023-01-21T23:55:27.681Z,101255.15
